Time;durP1;ratioP1;P1;durP2;ratioP2;P2;SDS_P1;SDS_P2;PMS_P1;PMS_P2;Temp;Humidity;BMP_temperature;BMP_pressure;BME280_temperature;BME280_humidity;BME280_pressure;Samples;Min_cycle;Max_cycle;Signal;HPM_P1;HPM_P2
2023/08/27 00:00:22;;;;;;;10.18;5.53;;;;;;;;;;6179182;23;20176;-92
2023/08/27 00:03:27;;;;;;;10.63;5.20;;;;;;;;;;6179120;23;20176;-90
2023/08/27 00:06:34;;;;;;;16.10;6.50;;;;;;;;;;6179956;23;20172;-91
2023/08/27 00:09:40;;;;;;;8.75;5.75;;;;;;;;;;6188442;23;20217;-90
2023/08/27 00:12:47;;;;;;;14.35;5.97;;;;;;;;;;6190502;23;20172;-89
2023/08/27 00:15:52;;;;;;;9.30;5.75;;;;;;;;;;6190367;23;20229;-90
2023/08/27 00:18:59;;;;;;;11.45;6.47;;;;;;;;;;6178651;23;20239;-92
2023/08/27 00:22:06;;;;;;;14.48;5.75;;;;;;;;;;6179732;23;20204;-90
2023/08/27 00:25:11;;;;;;;11.13;5.97;;;;;;;;;;6180000;23;20251;-92
2023/08/27 00:28:17;;;;;;;11.57;6.88;;;;;;;;;;6180307;23;20211;-91
2023/08/27 00:31:23;;;;;;;11.45;7.47;;;;;;;;;;6179898;23;20171;-91
2023/08/27 00:34:32;;;;;;;11.73;6.80;;;;;;;;;;6180034;23;20232;-92
2023/08/27 00:37:39;;;;;;;15.32;7.13;;;;;;;;;;6180781;23;20147;-90
2023/08/27 00:40:45;;;;;;;16.35;7.68;;;;;;;;;;6180676;23;20148;-90
2023/08/27 00:43:52;;;;;;;13.00;8.38;;;;;;;;;;6181145;23;20522;-94
2023/08/27 00:46:59;;;;;;;15.18;7.70;;;;;;;;;;6180745;23;20172;-91
2023/08/27 00:50:06;;;;;;;15.15;8.68;;;;;;;;;;6180295;23;20230;-92
2023/08/27 00:53:13;;;;;;;15.18;8.30;;;;;;;;;;6178783;23;20179;-91
2023/08/27 00:56:18;;;;;;;13.00;8.38;;;;;;;;;;6177500;23;20174;-92
2023/08/27 00:59:23;;;;;;;13.77;8.00;;;;;;;;;;6177588;23;20172;-90
2023/08/27 01:02:28;;;;;;;13.45;8.25;;;;;;;;;;6179177;23;20223;-91
2023/08/27 01:05:33;;;;;;;12.52;7.60;;;;;;;;;;6177982;23;20497;-92
2023/08/27 01:08:44;;;;;;;15.48;7.45;;;;;;;;;;6176827;23;20197;-90
2023/08/27 01:11:54;;;;;;;14.20;6.75;;;;;;;;;;6176845;23;20167;-91
2023/08/27 01:15:00;;;;;;;10.80;6.75;;;;;;;;;;6177400;23;20219;-88
2023/08/27 01:18:05;;;;;;;11.07;6.60;;;;;;;;;;6176808;23;20168;-91
2023/08/27 01:21:21;;;;;;;11.00;6.10;;;;;;;;;;6176851;23;20292;-89
2023/08/27 01:24:26;;;;;;;13.05;5.50;;;;;;;;;;6176012;23;20229;-92
2023/08/27 01:27:34;;;;;;;12.63;5.90;;;;;;;;;;6175075;23;20172;-92
2023/08/27 01:30:43;;;;;;;9.45;5.97;;;;;;;;;;6176734;23;20235;-91
2023/08/27 01:33:50;;;;;;;9.30;5.32;;;;;;;;;;6176436;23;20214;-89
2023/08/27 01:36:57;;;;;;;11.32;5.10;;;;;;;;;;6175037;23;20215;-91
2023/08/27 01:40:05;;;;;;;8.93;4.47;;;;;;;;;;6178540;23;20156;-91
2023/08/27 01:43:10;;;;;;;10.10;4.43;;;;;;;;;;6178152;23;20490;-92
2023/08/27 01:46:15;;;;;;;7.03;3.83;;;;;;;;;;6178882;23;20183;-91
2023/08/27 01:49:20;;;;;;;6.45;3.97;;;;;;;;;;6180841;23;20184;-90
2023/08/27 01:52:27;;;;;;;8.45;4.10;;;;;;;;;;6177870;23;20283;-90
2023/08/27 01:55:33;;;;;;;9.88;3.95;;;;;;;;;;6180299;23;20195;-91
2023/08/27 01:58:38;;;;;;;7.15;4.18;;;;;;;;;;6178729;23;20183;-90
2023/08/27 02:01:43;;;;;;;7.75;4.00;;;;;;;;;;6178912;23;20187;-91
2023/08/27 02:04:48;;;;;;;14.60;3.83;;;;;;;;;;6179514;23;20171;-90
2023/08/27 02:07:55;;;;;;;7.97;4.25;;;;;;;;;;6177865;23;20171;-90
2023/08/27 02:11:01;;;;;;;7.05;4.00;;;;;;;;;;6177798;23;20163;-91
2023/08/27 02:14:06;;;;;;;9.65;4.00;;;;;;;;;;6179832;23;20635;-91
2023/08/27 02:17:11;;;;;;;8.38;3.80;;;;;;;;;;6181750;23;20241;-91
2023/08/27 02:20:16;;;;;;;7.13;4.10;;;;;;;;;;6179751;23;20611;-91
2023/08/27 02:23:23;;;;;;;7.50;3.53;;;;;;;;;;6180649;23;20172;-89
2023/08/27 02:26:28;;;;;;;7.35;3.42;;;;;;;;;;6178883;23;20171;-92
2023/08/27 02:29:34;;;;;;;8.82;3.63;;;;;;;;;;6179650;23;20167;-92
2023/08/27 02:32:39;;;;;;;10.07;3.83;;;;;;;;;;6178938;23;20176;-92
2023/08/27 02:35:44;;;;;;;12.82;4.05;;;;;;;;;;6179728;23;20176;-91
2023/08/27 02:38:52;;;;;;;10.20;4.60;;;;;;;;;;6181087;23;20171;-91
2023/08/27 02:41:57;;;;;;;7.47;3.90;;;;;;;;;;6180473;23;20219;-91
2023/08/27 02:45:01;;;;;;;7.57;4.05;;;;;;;;;;6180132;23;20163;-90
2023/08/27 02:48:07;;;;;;;8.40;3.67;;;;;;;;;;6177792;23;20606;-91
2023/08/27 02:51:12;;;;;;;7.93;4.45;;;;;;;;;;6177714;23;20187;-91
2023/08/27 02:54:18;;;;;;;6.25;3.95;;;;;;;;;;6179338;23;20678;-90
2023/08/27 02:57:23;;;;;;;10.07;4.00;;;;;;;;;;6179536;23;20167;-90
2023/08/27 03:00:28;;;;;;;7.65;3.70;;;;;;;;;;6177078;23;20168;-91
2023/08/27 03:03:34;;;;;;;8.15;4.30;;;;;;;;;;6178692;23;20549;-91
2023/08/27 03:06:39;;;;;;;6.70;4.47;;;;;;;;;;6178411;23;20168;-91
2023/08/27 03:09:46;;;;;;;6.50;3.83;;;;;;;;;;6178812;23;20175;-89
2023/08/27 03:12:51;;;;;;;10.60;4.07;;;;;;;;;;6178513;23;20168;-91
2023/08/27 03:15:56;;;;;;;7.15;4.15;;;;;;;;;;6177436;23;20243;-90
2023/08/27 03:19:01;;;;;;;8.45;4.57;;;;;;;;;;6179647;23;20174;-91
2023/08/27 03:22:07;;;;;;;7.53;3.90;;;;;;;;;;6178318;23;20194;-91
2023/08/27 03:25:15;;;;;;;12.80;4.32;;;;;;;;;;6177589;23;20159;-92
2023/08/27 03:28:20;;;;;;;9.25;3.53;;;;;;;;;;6178926;23;20168;-90
2023/08/27 03:31:26;;;;;;;7.88;3.80;;;;;;;;;;6179180;23;20164;-93
2023/08/27 03:34:31;;;;;;;5.28;3.90;;;;;;;;;;6178260;23;20246;-92
2023/08/27 03:37:37;;;;;;;5.57;3.10;;;;;;;;;;6177712;23;20239;-92
2023/08/27 03:40:49;;;;;;;7.95;3.88;;;;;;;;;;6180387;23;20156;-92
2023/08/27 03:43:54;;;;;;;7.38;3.95;;;;;;;;;;6179945;23;20209;-92
2023/08/27 03:46:59;;;;;;;8.63;3.63;;;;;;;;;;6180294;23;20227;-91
2023/08/27 03:50:05;;;;;;;17.58;8.93;;;;;;;;;;6180104;23;20188;-90
2023/08/27 03:53:11;;;;;;;11.05;4.53;;;;;;;;;;6178199;23;20172;-89
2023/08/27 03:56:18;;;;;;;6.75;3.63;;;;;;;;;;6178238;23;20531;-91
2023/08/27 03:59:27;;;;;;;9.95;4.05;;;;;;;;;;6178587;23;20171;-93
2023/08/27 04:02:32;;;;;;;8.40;4.53;;;;;;;;;;6178075;23;20204;-90
2023/08/27 04:05:38;;;;;;;7.40;3.40;;;;;;;;;;6177606;23;20168;-89
2023/08/27 04:08:43;;;;;;;8.10;3.55;;;;;;;;;;6180062;23;20168;-89
2023/08/27 04:11:50;;;;;;;5.40;3.33;;;;;;;;;;6178990;23;20167;-91
2023/08/27 04:14:55;;;;;;;5.03;3.20;;;;;;;;;;6178359;23;20195;-91
2023/08/27 04:18:00;;;;;;;7.28;3.25;;;;;;;;;;6178765;23;20172;-89
2023/08/27 04:21:05;;;;;;;5.38;3.20;;;;;;;;;;6177481;23;20283;-88
2023/08/27 04:24:11;;;;;;;6.82;3.22;;;;;;;;;;6178093;23;20228;-88
2023/08/27 04:27:17;;;;;;;6.20;3.25;;;;;;;;;;6180969;23;20168;-91
2023/08/27 04:30:22;;;;;;;6.03;2.80;;;;;;;;;;6179009;23;20615;-91
2023/08/27 04:33:27;;;;;;;5.30;3.60;;;;;;;;;;6178811;23;20247;-90
2023/08/27 04:36:32;;;;;;;8.38;3.60;;;;;;;;;;6178223;23;20549;-91
2023/08/27 04:39:37;;;;;;;4.78;3.17;;;;;;;;;;6176090;23;20156;-90
2023/08/27 04:42:44;;;;;;;9.25;3.35;;;;;;;;;;6174310;23;20220;-89
2023/08/27 04:45:49;;;;;;;7.20;4.00;;;;;;;;;;6175458;23;20243;-92
2023/08/27 04:48:55;;;;;;;6.47;4.15;;;;;;;;;;6180312;23;20188;-89
2023/08/27 04:52:00;;;;;;;8.43;3.88;;;;;;;;;;6177319;23;20168;-92
2023/08/27 04:55:06;;;;;;;6.40;3.67;;;;;;;;;;6177312;23;20203;-90
2023/08/27 04:58:15;;;;;;;8.70;4.03;;;;;;;;;;6176894;23;20620;-91
2023/08/27 05:01:20;;;;;;;11.65;4.40;;;;;;;;;;6179482;23;20168;-91
2023/08/27 05:04:25;;;;;;;6.95;4.00;;;;;;;;;;6178206;23;20291;-92
2023/08/27 05:07:31;;;;;;;5.53;3.97;;;;;;;;;;6176338;23;20167;-89
2023/08/27 05:10:36;;;;;;;11.85;3.42;;;;;;;;;;6177318;23;20243;-90
2023/08/27 05:13:43;;;;;;;8.60;3.80;;;;;;;;;;6178730;23;20171;-89
2023/08/27 05:16:49;;;;;;;6.95;3.92;;;;;;;;;;6177666;23;20172;-91
2023/08/27 05:19:54;;;;;;;9.50;4.18;;;;;;;;;;6178044;23;20167;-90
2023/08/27 05:23:01;;;;;;;7.15;3.67;;;;;;;;;;6177722;23;20649;-87
2023/08/27 05:26:06;;;;;;;6.20;3.28;;;;;;;;;;6177274;23;20151;-89
2023/08/27 05:29:13;;;;;;;7.57;3.40;;;;;;;;;;6179520;23;20199;-90
2023/08/27 05:32:19;;;;;;;8.68;3.50;;;;;;;;;;6179989;23;20223;-90
2023/08/27 05:35:25;;;;;;;7.00;3.15;;;;;;;;;;6179529;23;20222;-91
2023/08/27 05:38:30;;;;;;;6.90;3.50;;;;;;;;;;6179535;23;20167;-90
2023/08/27 05:41:35;;;;;;;10.13;4.50;;;;;;;;;;6179115;23;20171;-92
2023/08/27 05:44:42;;;;;;;18.17;3.08;;;;;;;;;;6180383;23;20176;-92
2023/08/27 05:47:48;;;;;;;14.57;4.97;;;;;;;;;;6179758;23;20168;-91
2023/08/27 05:50:53;;;;;;;6.82;1.30;;;;;;;;;;6179576;23;20590;-91
2023/08/27 05:53:59;;;;;;;0.57;0.57;;;;;;;;;;6179547;23;20168;-91
2023/08/27 05:57:05;;;;;;;0.52;0.52;;;;;;;;;;6179981;23;20176;-90
2023/08/27 06:00:13;;;;;;;1.20;1.05;;;;;;;;;;6179320;23;20498;-90
2023/08/27 06:03:18;;;;;;;0.75;0.35;;;;;;;;;;6197919;23;20164;-91
2023/08/27 06:06:23;;;;;;;0.30;0.30;;;;;;;;;;6180465;23;20171;-91
2023/08/27 06:09:29;;;;;;;0.63;0.63;;;;;;;;;;6182501;23;20276;-92
2023/08/27 06:12:37;;;;;;;1.50;0.68;;;;;;;;;;6180196;23;20175;-89
2023/08/27 06:15:43;;;;;;;0.47;0.47;;;;;;;;;;6179602;23;20538;-89
2023/08/27 06:18:48;;;;;;;3.13;1.38;;;;;;;;;;6180704;23;20171;-91
2023/08/27 06:21:57;;;;;;;0.40;0.40;;;;;;;;;;6182166;23;20164;-91
2023/08/27 06:25:03;;;;;;;0.52;0.52;;;;;;;;;;6181481;23;20288;-90
2023/08/27 06:28:09;;;;;;;0.40;0.40;;;;;;;;;;6181323;23;20163;-90
2023/08/27 06:31:16;;;;;;;4.22;1.38;;;;;;;;;;6180928;23;20175;-91
2023/08/27 06:34:24;;;;;;;6.30;0.70;;;;;;;;;;6179586;23;20220;-91
2023/08/27 06:37:31;;;;;;;0.40;0.40;;;;;;;;;;6182747;23;20164;-90
2023/08/27 06:40:37;;;;;;;0.35;0.35;;;;;;;;;;6179351;23;20159;-89
2023/08/27 06:43:42;;;;;;;0.40;0.40;;;;;;;;;;6179813;23;20224;-91
2023/08/27 06:46:52;;;;;;;0.50;0.50;;;;;;;;;;6185365;23;20172;-92
2023/08/27 06:49:58;;;;;;;1.48;0.70;;;;;;;;;;6183915;23;20156;-90
2023/08/27 06:53:04;;;;;;;0.50;0.50;;;;;;;;;;6183550;23;20172;-92
2023/08/27 06:56:11;;;;;;;1.38;0.57;;;;;;;;;;6181366;23;20214;-93
2023/08/27 06:59:17;;;;;;;0.30;0.30;;;;;;;;;;6180597;23;20167;-91
2023/08/27 07:02:23;;;;;;;2.33;0.75;;;;;;;;;;6179885;23;20167;-91
2023/08/27 07:05:29;;;;;;;1.05;0.60;;;;;;;;;;6180828;23;20171;-89
2023/08/27 07:08:35;;;;;;;0.20;0.20;;;;;;;;;;6181052;23;20164;-89
2023/08/27 07:11:40;;;;;;;20.27;1.63;;;;;;;;;;6182518;23;20172;-90
2023/08/27 07:14:46;;;;;;;0.80;0.80;;;;;;;;;;6179059;23;20248;-91
2023/08/27 07:17:52;;;;;;;0.50;0.50;;;;;;;;;;6179788;23;20167;-89
2023/08/27 07:20:57;;;;;;;0.43;0.43;;;;;;;;;;6179010;23;20165;-90
2023/08/27 07:24:02;;;;;;;0.77;0.77;;;;;;;;;;6178889;23;20171;-90
2023/08/27 07:27:09;;;;;;;0.32;0.32;;;;;;;;;;6179945;23;20167;-89
2023/08/27 07:30:14;;;;;;;4.38;1.05;;;;;;;;;;6179201;23;20172;-91
2023/08/27 07:33:21;;;;;;;0.30;0.30;;;;;;;;;;6179873;23;20168;-91
2023/08/27 07:36:30;;;;;;;0.90;0.75;;;;;;;;;;6183882;23;20191;-89
2023/08/27 07:39:35;;;;;;;1.52;0.77;;;;;;;;;;6186864;23;20168;-93
2023/08/27 07:42:40;;;;;;;0.60;0.43;;;;;;;;;;6180207;23;20473;-92
2023/08/27 07:45:46;;;;;;;0.38;0.38;;;;;;;;;;6180853;23;20587;-89
2023/08/27 07:48:53;;;;;;;0.60;0.60;;;;;;;;;;6182249;23;20175;-91
2023/08/27 07:51:58;;;;;;;0.40;0.40;;;;;;;;;;6183160;23;20219;-92
2023/08/27 07:55:06;;;;;;;0.50;0.50;;;;;;;;;;6180212;23;20179;-89
2023/08/27 07:58:11;;;;;;;0.28;0.28;;;;;;;;;;6180793;23;20207;-91
2023/08/27 08:01:17;;;;;;;0.40;0.40;;;;;;;;;;6179308;23;20163;-91
2023/08/27 08:04:24;;;;;;;0.60;0.60;;;;;;;;;;6181279;23;20155;-89
2023/08/27 08:07:35;;;;;;;0.30;0.30;;;;;;;;;;6179860;23;20237;-90
2023/08/27 08:10:40;;;;;;;0.30;0.30;;;;;;;;;;6183163;23;20152;-93
2023/08/27 08:13:46;;;;;;;0.40;0.40;;;;;;;;;;6183436;23;20623;-92
2023/08/27 08:16:53;;;;;;;0.30;0.30;;;;;;;;;;6181109;23;20216;-92
2023/08/27 08:20:00;;;;;;;0.20;0.20;;;;;;;;;;6185234;23;20176;-93
2023/08/27 08:23:08;;;;;;;0.55;0.55;;;;;;;;;;6183601;23;20233;-89
2023/08/27 08:26:13;;;;;;;0.75;0.73;;;;;;;;;;6186193;23;20231;-91
2023/08/27 08:29:18;;;;;;;0.70;0.50;;;;;;;;;;6185284;23;20220;-92
2023/08/27 08:35:48;;;;;;;10.88;1.33;;;;;;;;;;6180102;23;20242;-94
2023/08/27 08:38:57;;;;;;;5.00;0.73;;;;;;;;;;6181325;23;20178;-93
2023/08/27 08:42:10;;;;;;;0.57;0.57;;;;;;;;;;6165614;23;20208;-92
2023/08/27 08:45:17;;;;;;;0.75;0.65;;;;;;;;;;6182945;23;20241;-92
2023/08/27 08:48:25;;;;;;;0.20;0.20;;;;;;;;;;6180258;23;20220;-92
2023/08/27 08:51:32;;;;;;;2.08;0.85;;;;;;;;;;6182131;23;20243;-90
2023/08/27 08:54:38;;;;;;;0.85;0.52;;;;;;;;;;6180669;23;20195;-92
2023/08/27 08:57:46;;;;;;;0.63;0.63;;;;;;;;;;6181055;23;20211;-93
2023/08/27 09:00:51;;;;;;;0.30;0.30;;;;;;;;;;6179797;23;20504;-90
2023/08/27 09:03:57;;;;;;;0.28;0.28;;;;;;;;;;6180517;23;20171;-90
2023/08/27 09:07:05;;;;;;;2.30;1.30;;;;;;;;;;6179712;23;20207;-90
2023/08/27 09:10:11;;;;;;;0.95;0.95;;;;;;;;;;6181374;23;20171;-92
2023/08/27 09:13:19;;;;;;;0.35;0.35;;;;;;;;;;6181123;23;20171;-92
2023/08/27 09:16:27;;;;;;;1.60;0.95;;;;;;;;;;6182468;23;20195;-92
2023/08/27 09:19:32;;;;;;;0.50;0.47;;;;;;;;;;6180467;23;20180;-92
2023/08/27 09:22:40;;;;;;;2.55;1.52;;;;;;;;;;6180382;23;20168;-91
2023/08/27 09:25:46;;;;;;;0.50;0.50;;;;;;;;;;6177832;23;20156;-90
2023/08/27 09:28:51;;;;;;;0.75;0.75;;;;;;;;;;6180100;23;20654;-92
2023/08/27 09:31:57;;;;;;;0.85;0.40;;;;;;;;;;6180557;23;20180;-94
2023/08/27 09:35:03;;;;;;;0.88;0.88;;;;;;;;;;6178510;23;20495;-94
2023/08/27 09:38:12;;;;;;;0.98;0.82;;;;;;;;;;6180363;23;20167;-93
2023/08/27 09:41:17;;;;;;;0.22;0.22;;;;;;;;;;6179209;23;20167;-91
2023/08/27 09:44:26;;;;;;;0.38;0.38;;;;;;;;;;6181454;23;20155;-91
2023/08/27 09:47:31;;;;;;;0.50;0.50;;;;;;;;;;6181699;23;20220;-91
2023/08/27 09:50:36;;;;;;;0.55;0.35;;;;;;;;;;6181130;23;20176;-91
2023/08/27 09:53:43;;;;;;;0.30;0.30;;;;;;;;;;6183227;23;20217;-90
2023/08/27 09:56:49;;;;;;;0.30;0.30;;;;;;;;;;6180590;23;20187;-91
2023/08/27 09:59:54;;;;;;;0.20;0.20;;;;;;;;;;6180696;23;20172;-90
2023/08/27 10:03:00;;;;;;;0.20;0.20;;;;;;;;;;6181863;23;20213;-92
2023/08/27 10:06:05;;;;;;;0.60;0.60;;;;;;;;;;6179102;23;20164;-94
2023/08/27 10:09:11;;;;;;;1.45;0.60;;;;;;;;;;6178971;23;20684;-92
2023/08/27 10:12:17;;;;;;;0.30;0.30;;;;;;;;;;6180639;23;20187;-92
2023/08/27 10:15:23;;;;;;;0.20;0.20;;;;;;;;;;6181865;23;20191;-90
2023/08/27 10:18:28;;;;;;;0.25;0.25;;;;;;;;;;6179933;23;20171;-93
2023/08/27 10:21:33;;;;;;;0.20;0.20;;;;;;;;;;6180849;23;20254;-91
2023/08/27 10:24:41;;;;;;;0.45;0.40;;;;;;;;;;6181000;23;20172;-91
2023/08/27 10:27:48;;;;;;;0.35;0.35;;;;;;;;;;6181385;23;20152;-92
2023/08/27 10:30:55;;;;;;;1.52;0.95;;;;;;;;;;6180367;23;20176;-90
2023/08/27 10:34:00;;;;;;;0.40;0.40;;;;;;;;;;6181981;23;20187;-90
2023/08/27 10:37:08;;;;;;;0.60;0.60;;;;;;;;;;6182631;23;20191;-93
2023/08/27 10:40:15;;;;;;;0.40;0.40;;;;;;;;;;6180959;23;20176;-90
2023/08/27 10:43:21;;;;;;;0.57;0.50;;;;;;;;;;6179167;23;20156;-91
2023/08/27 10:46:26;;;;;;;1.45;0.75;;;;;;;;;;6180484;23;20184;-90
2023/08/27 10:49:37;;;;;;;0.28;0.28;;;;;;;;;;6181328;23;20156;-93
2023/08/27 10:52:57;;;;;;;3.90;0.50;;;;;;;;;;6183995;22;20160;-91
2023/08/27 10:56:03;;;;;;;0.40;0.40;;;;;;;;;;6182218;23;20276;-90
2023/08/27 10:59:10;;;;;;;1.27;0.80;;;;;;;;;;6184494;23;20334;-89
2023/08/27 11:02:16;;;;;;;1.25;0.45;;;;;;;;;;6183195;23;20211;-90
2023/08/27 11:05:27;;;;;;;0.52;0.52;;;;;;;;;;6201906;23;20155;-90
2023/08/27 11:08:35;;;;;;;0.65;0.65;;;;;;;;;;6182166;23;20216;-92
2023/08/27 11:11:44;;;;;;;0.77;0.77;;;;;;;;;;6182122;23;20167;-92
2023/08/27 11:14:49;;;;;;;0.75;0.68;;;;;;;;;;6182979;23;20612;-91
2023/08/27 11:17:55;;;;;;;1.50;0.90;;;;;;;;;;6181035;23;20196;-90
2023/08/27 11:21:00;;;;;;;0.40;0.40;;;;;;;;;;6183329;23;20492;-90
2023/08/27 11:24:15;;;;;;;0.45;0.45;;;;;;;;;;6182780;23;20245;-91
2023/08/27 11:27:22;;;;;;;0.75;0.73;;;;;;;;;;6180761;23;20215;-90
2023/08/27 11:30:28;;;;;;;0.30;0.30;;;;;;;;;;6179893;23;20219;-90
2023/08/27 11:33:35;;;;;;;1.20;0.40;;;;;;;;;;6178580;23;20241;-91
2023/08/27 11:36:41;;;;;;;0.70;0.45;;;;;;;;;;6181243;23;20223;-91
2023/08/27 11:39:46;;;;;;;0.50;0.50;;;;;;;;;;6181818;23;20188;-92
2023/08/27 11:42:53;;;;;;;0.50;0.50;;;;;;;;;;6184643;23;20167;-90
2023/08/27 11:45:58;;;;;;;1.48;0.73;;;;;;;;;;6182507;23;20163;-92
2023/08/27 11:49:06;;;;;;;2.53;0.77;;;;;;;;;;6183316;23;20156;-90
2023/08/27 11:52:13;;;;;;;0.75;0.75;;;;;;;;;;6181977;23;20172;-90
2023/08/27 11:55:23;;;;;;;0.30;0.30;;;;;;;;;;6185850;23;20195;-90
2023/08/27 11:58:31;;;;;;;2.95;1.15;;;;;;;;;;6202022;23;20168;-89
2023/08/27 12:01:36;;;;;;;0.75;0.70;;;;;;;;;;6199485;23;20183;-89
2023/08/27 12:04:42;;;;;;;0.22;0.22;;;;;;;;;;6198731;23;20620;-93
2023/08/27 12:07:47;;;;;;;0.30;0.30;;;;;;;;;;6199958;23;20622;-91
2023/08/27 12:10:57;;;;;;;1.48;1.38;;;;;;;;;;6198704;23;20164;-90
2023/08/27 12:14:22;;;;;;;0.40;0.40;;;;;;;;;;6200567;23;20175;-92
2023/08/27 12:17:34;;;;;;;0.50;0.50;;;;;;;;;;6199387;23;20207;-89
2023/08/27 12:20:39;;;;;;;0.30;0.30;;;;;;;;;;6199886;23;20600;-90
2023/08/27 12:23:51;;;;;;;2.30;1.10;;;;;;;;;;6199388;23;20191;-94
2023/08/27 12:26:56;;;;;;;1.48;0.68;;;;;;;;;;6198526;23;20646;-93
2023/08/27 12:29:55;;;;;;;0.40;0.32;;;;;;;;;;6224751;22;20261;-90
2023/08/27 12:33:01;;;;;;;0.30;0.30;;;;;;;;;;6241793;22;20162;-90
2023/08/27 12:36:08;;;;;;;4.10;0.68;;;;;;;;;;6244530;23;20170;-90
2023/08/27 12:39:13;;;;;;;0.47;0.47;;;;;;;;;;6241725;22;20170;-88
2023/08/27 12:42:18;;;;;;;0.30;0.30;;;;;;;;;;6237418;23;20162;-88
2023/08/27 12:45:25;;;;;;;0.30;0.30;;;;;;;;;;6240436;22;20163;-91
2023/08/27 12:48:30;;;;;;;0.47;0.47;;;;;;;;;;6239846;22;20174;-91
2023/08/27 12:51:37;;;;;;;0.77;0.52;;;;;;;;;;6241207;23;20217;-90
2023/08/27 12:54:42;;;;;;;0.47;0.47;;;;;;;;;;6222661;23;20621;-91
2023/08/27 12:57:48;;;;;;;0.52;0.52;;;;;;;;;;6240698;23;20280;-93
2023/08/27 13:00:54;;;;;;;0.40;0.40;;;;;;;;;;6240314;22;20149;-89
2023/08/27 13:04:00;;;;;;;0.50;0.50;;;;;;;;;;6244185;22;20542;-91
2023/08/27 13:07:05;;;;;;;0.30;0.30;;;;;;;;;;6241729;23;20170;-89
2023/08/27 13:10:11;;;;;;;0.40;0.40;;;;;;;;;;6241063;23;20170;-90
2023/08/27 13:13:16;;;;;;;0.35;0.35;;;;;;;;;;6239638;23;20223;-92
2023/08/27 13:16:22;;;;;;;0.30;0.30;;;;;;;;;;6239526;23;20170;-90
2023/08/27 13:19:27;;;;;;;0.35;0.35;;;;;;;;;;6239234;22;20496;-91
2023/08/27 13:22:32;;;;;;;0.75;0.50;;;;;;;;;;6240378;23;20170;-92
2023/08/27 13:25:38;;;;;;;0.82;0.52;;;;;;;;;;6240534;23;20217;-88
2023/08/27 13:28:44;;;;;;;0.40;0.40;;;;;;;;;;6240685;23;20190;-91
2023/08/27 13:31:55;;;;;;;5.72;0.88;;;;;;;;;;6240559;23;20422;-93
2023/08/27 13:35:03;;;;;;;0.70;0.70;;;;;;;;;;6240334;23;20498;-92
2023/08/27 13:38:08;;;;;;;1.67;0.45;;;;;;;;;;6241386;23;20198;-92
2023/08/27 13:41:13;;;;;;;0.70;0.70;;;;;;;;;;6242297;23;20162;-90
2023/08/27 13:44:18;;;;;;;2.47;0.47;;;;;;;;;;6242192;23;20185;-90
2023/08/27 13:47:25;;;;;;;0.40;0.40;;;;;;;;;;6243217;22;20170;-90
2023/08/27 13:50:30;;;;;;;0.30;0.30;;;;;;;;;;6242783;22;20170;-92
2023/08/27 13:53:35;;;;;;;0.32;0.32;;;;;;;;;;6241998;22;20166;-92
2023/08/27 13:56:40;;;;;;;0.35;0.35;;;;;;;;;;6244287;23;20281;-90
2023/08/27 13:59:45;;;;;;;0.20;0.20;;;;;;;;;;6243922;22;20169;-91
2023/08/27 14:02:52;;;;;;;0.35;0.35;;;;;;;;;;6242123;22;20210;-90
2023/08/27 14:05:57;;;;;;;2.75;0.95;;;;;;;;;;6243375;22;20179;-90
2023/08/27 14:09:03;;;;;;;0.55;0.55;;;;;;;;;;6241330;23;20567;-90
2023/08/27 14:12:09;;;;;;;0.30;0.30;;;;;;;;;;6240612;23;20502;-91
2023/08/27 14:15:14;;;;;;;0.40;0.40;;;;;;;;;;6240926;23;20166;-89
2023/08/27 14:18:20;;;;;;;0.80;0.80;;;;;;;;;;6242408;22;20178;-90
2023/08/27 14:21:26;;;;;;;0.47;0.47;;;;;;;;;;6248579;22;20629;-93
2023/08/27 14:24:31;;;;;;;0.25;0.25;;;;;;;;;;6243366;23;20166;-91
2023/08/27 14:27:36;;;;;;;0.32;0.32;;;;;;;;;;6242904;23;20170;-89
2023/08/27 14:30:41;;;;;;;0.32;0.32;;;;;;;;;;6243147;22;20671;-89
2023/08/27 14:33:48;;;;;;;0.40;0.40;;;;;;;;;;6241288;22;20174;-93
2023/08/27 14:36:53;;;;;;;0.30;0.30;;;;;;;;;;6241918;22;20276;-92
2023/08/27 14:39:58;;;;;;;0.35;0.35;;;;;;;;;;6240752;23;20163;-91
2023/08/27 14:43:03;;;;;;;0.43;0.43;;;;;;;;;;6241619;23;20170;-90
2023/08/27 14:46:08;;;;;;;0.20;0.20;;;;;;;;;;6240818;23;20166;-90
2023/08/27 14:49:20;;;;;;;0.60;0.60;;;;;;;;;;6240004;23;20233;-90
2023/08/27 14:52:25;;;;;;;0.68;0.65;;;;;;;;;;6240783;22;20162;-89
2023/08/27 14:55:30;;;;;;;0.30;0.30;;;;;;;;;;6239814;22;20469;-90
2023/08/27 14:58:36;;;;;;;0.35;0.35;;;;;;;;;;6240377;23;20317;-90
2023/08/27 15:01:41;;;;;;;0.38;0.38;;;;;;;;;;6240634;23;20198;-94
2023/08/27 15:04:48;;;;;;;0.40;0.40;;;;;;;;;;6239748;23;20592;-92
2023/08/27 15:07:53;;;;;;;0.30;0.30;;;;;;;;;;6240514;22;20221;-91
2023/08/27 15:10:59;;;;;;;0.60;0.60;;;;;;;;;;6242343;22;20169;-90
2023/08/27 15:14:04;;;;;;;0.75;0.32;;;;;;;;;;6241492;23;20207;-89
2023/08/27 15:17:09;;;;;;;0.40;0.40;;;;;;;;;;6240589;23;20182;-93
2023/08/27 15:20:16;;;;;;;0.47;0.47;;;;;;;;;;6240377;22;20486;-90
2023/08/27 15:23:21;;;;;;;0.75;0.50;;;;;;;;;;6242059;23;20170;-93
2023/08/27 15:26:26;;;;;;;0.47;0.47;;;;;;;;;;6240786;22;20166;-92
2023/08/27 15:29:30;;;;;;;0.40;0.40;;;;;;;;;;6238286;23;20264;-93
2023/08/27 15:32:36;;;;;;;1.30;0.77;;;;;;;;;;6239988;22;20167;-92
2023/08/27 15:35:42;;;;;;;0.45;0.45;;;;;;;;;;6242751;22;20154;-91
2023/08/27 15:38:47;;;;;;;0.85;0.85;;;;;;;;;;6242245;23;20190;-90
2023/08/27 15:41:56;;;;;;;0.55;0.55;;;;;;;;;;6240618;23;20229;-93
2023/08/27 15:45:02;;;;;;;0.30;0.30;;;;;;;;;;6240883;23;20161;-90
2023/08/27 15:48:07;;;;;;;0.40;0.40;;;;;;;;;;6244483;23;20167;-91
2023/08/27 15:51:14;;;;;;;1.45;0.73;;;;;;;;;;6260993;23;20190;-89
2023/08/27 15:54:20;;;;;;;0.30;0.30;;;;;;;;;;6242145;23;20495;-92
2023/08/27 15:57:26;;;;;;;0.30;0.30;;;;;;;;;;6244966;22;20198;-92
2023/08/27 16:00:32;;;;;;;0.60;0.60;;;;;;;;;;6243105;22;20222;-90
2023/08/27 16:03:37;;;;;;;0.30;0.30;;;;;;;;;;6246055;22;20163;-90
2023/08/27 16:06:43;;;;;;;0.35;0.35;;;;;;;;;;6246550;23;20170;-89
2023/08/27 16:09:48;;;;;;;0.75;0.75;;;;;;;;;;6245514;23;20170;-88
2023/08/27 16:12:54;;;;;;;0.38;0.38;;;;;;;;;;6241161;23;20242;-90
2023/08/27 16:15:59;;;;;;;0.50;0.50;;;;;;;;;;6244602;22;20162;-89
2023/08/27 16:19:04;;;;;;;0.30;0.30;;;;;;;;;;6242844;22;20213;-91
2023/08/27 16:22:12;;;;;;;4.00;1.98;;;;;;;;;;6244421;23;20170;-91
2023/08/27 16:25:19;;;;;;;6.85;3.42;;;;;;;;;;6244747;23;20476;-92
2023/08/27 16:28:27;;;;;;;4.80;2.85;;;;;;;;;;6245466;23;20233;-93
2023/08/27 16:31:32;;;;;;;4.70;3.13;;;;;;;;;;6243541;22;20174;-91
2023/08/27 16:34:38;;;;;;;3.42;2.88;;;;;;;;;;6243840;23;20170;-92
2023/08/27 16:37:45;;;;;;;5.97;3.38;;;;;;;;;;6243877;23;20247;-92
2023/08/27 16:40:50;;;;;;;5.95;3.83;;;;;;;;;;6242361;23;20170;-93
2023/08/27 16:43:58;;;;;;;6.40;3.85;;;;;;;;;;6241945;23;20538;-93
2023/08/27 16:47:03;;;;;;;8.63;3.58;;;;;;;;;;6243066;23;20159;-91
2023/08/27 16:50:08;;;;;;;4.75;3.78;;;;;;;;;;6243235;23;20161;-92
2023/08/27 16:53:14;;;;;;;6.85;4.20;;;;;;;;;;6244548;23;20212;-91
2023/08/27 16:56:20;;;;;;;4.50;3.60;;;;;;;;;;6245111;23;20150;-91
2023/08/27 16:59:25;;;;;;;5.43;2.92;;;;;;;;;;6244957;23;20278;-90
2023/08/27 17:02:30;;;;;;;5.68;3.50;;;;;;;;;;6243979;23;20167;-90
2023/08/27 17:05:36;;;;;;;5.20;3.08;;;;;;;;;;6245413;23;20165;-90
2023/08/27 17:08:44;;;;;;;5.80;2.78;;;;;;;;;;6245844;23;20178;-91
2023/08/27 17:11:49;;;;;;;3.60;2.80;;;;;;;;;;6246335;23;20170;-92
2023/08/27 17:14:56;;;;;;;4.72;2.45;;;;;;;;;;6247425;23;20201;-90
2023/08/27 17:18:02;;;;;;;4.95;2.28;;;;;;;;;;6245535;22;20181;-93
2023/08/27 17:21:19;;;;;;;3.78;2.30;;;;;;;;;;6252118;22;20169;-92
2023/08/27 17:24:35;;;;;;;3.70;1.88;;;;;;;;;;6244966;23;20236;-93
2023/08/27 17:27:48;;;;;;;3.60;1.77;;;;;;;;;;6253528;22;20664;-91
2023/08/27 17:31:01;;;;;;;2.90;1.65;;;;;;;;;;6253618;22;20214;-87
2023/08/27 17:34:10;;;;;;;2.78;1.40;;;;;;;;;;6254069;22;20194;-90
2023/08/27 17:37:15;;;;;;;3.45;2.20;;;;;;;;;;6251433;23;20216;-91
2023/08/27 17:40:22;;;;;;;2.30;1.70;;;;;;;;;;6250454;22;20597;-88
2023/08/27 17:43:28;;;;;;;3.10;1.70;;;;;;;;;;6247115;22;20783;-90
2023/08/27 17:46:33;;;;;;;2.47;1.50;;;;;;;;;;6246623;23;20167;-91
2023/08/27 17:49:43;;;;;;;4.22;1.98;;;;;;;;;;6246878;22;20150;-91
2023/08/27 17:52:51;;;;;;;6.13;2.28;;;;;;;;;;6251600;22;20229;-93
2023/08/27 17:56:05;;;;;;;3.67;2.00;;;;;;;;;;6251472;22;20228;-91
2023/08/27 18:02:45;;;;;;;2.45;1.60;;;;;;;;;;6248921;22;20252;-90
2023/08/27 18:06:06;;;;;;;2.42;1.40;;;;;;;;;;6251798;22;20229;-92
2023/08/27 18:09:12;;;;;;;3.70;1.48;;;;;;;;;;6250469;22;20166;-90
2023/08/27 18:12:20;;;;;;;2.20;1.67;;;;;;;;;;6248706;23;20150;-91
2023/08/27 18:18:48;;;;;;;2.72;1.55;;;;;;;;;;6267245;23;20203;-90
2023/08/27 18:25:13;;;;;;;4.18;1.83;;;;;;;;;;6241012;23;20194;-91
2023/08/27 18:28:25;;;;;;;1.98;1.48;;;;;;;;;;6218752;23;20159;-88
2023/08/27 18:31:31;;;;;;;2.33;1.45;;;;;;;;;;6216494;23;20227;-90
2023/08/27 18:34:36;;;;;;;2.08;1.50;;;;;;;;;;6216858;23;20163;-93
2023/08/27 18:37:43;;;;;;;5.07;1.80;;;;;;;;;;6215488;23;20286;-90
2023/08/27 18:40:49;;;;;;;4.18;1.80;;;;;;;;;;6214972;23;20171;-90
2023/08/27 18:43:55;;;;;;;4.45;1.63;;;;;;;;;;6214311;23;20171;-90
2023/08/27 18:47:01;;;;;;;6.35;1.67;;;;;;;;;;6215533;23;20171;-92